createdAt,value
2023-03-26T00:01:16.659Z,5.48
2023-03-26T00:03:45.091Z,5.51
2023-03-26T00:06:14.296Z,5.52
2023-03-26T00:08:41.958Z,5.44
2023-03-26T00:11:10.845Z,5.53
2023-03-26T00:13:37.696Z,5.60
2023-03-26T00:16:04.561Z,5.62
2023-03-26T00:18:31.492Z,5.66
2023-03-26T00:20:58.660Z,5.64
2023-03-26T00:23:27.044Z,5.64
2023-03-26T00:25:54.578Z,5.59
2023-03-26T00:28:22.338Z,5.59
2023-03-26T00:31:01.473Z,5.49
2023-03-26T00:33:28.350Z,5.48
2023-03-26T00:35:58.712Z,5.49
2023-03-26T00:38:26.640Z,5.49
2023-03-26T00:40:54.322Z,5.47
2023-03-26T00:43:22.727Z,5.50
2023-03-26T00:45:51.846Z,5.49
2023-03-26T00:48:18.817Z,5.42
2023-03-26T00:50:46.843Z,5.36
2023-03-26T00:53:14.590Z,5.38
2023-03-26T00:55:41.757Z,5.27
2023-03-26T00:58:10.281Z,5.25
2023-03-26T01:00:42.466Z,5.23
2023-03-26T01:03:21.900Z,5.21
2023-03-26T01:06:04.921Z,5.19
2023-03-26T01:08:42.789Z,5.16
2023-03-26T01:11:16.848Z,5.16
2023-03-26T01:13:52.782Z,5.10
2023-03-26T01:16:26.644Z,5.06
2023-03-26T01:18:54.224Z,5.03
2023-03-26T01:21:28.646Z,5.07
2023-03-26T01:24:13.742Z,5.08
2023-03-26T01:26:52.742Z,5.08
2023-03-26T01:29:33.376Z,5.01
2023-03-26T01:32:37.874Z,5.03
2023-03-26T01:35:14.229Z,5.03
2023-03-26T01:37:52.844Z,4.95
2023-03-26T01:40:42.988Z,4.93
2023-03-26T01:43:12.491Z,4.84
2023-03-26T01:45:42.333Z,4.83
2023-03-26T01:48:08.877Z,4.82
2023-03-26T01:50:35.320Z,4.82
2023-03-26T01:53:01.817Z,4.74
2023-03-26T01:55:56.052Z,4.76
2023-03-26T01:58:38.009Z,4.66
2023-03-26T02:01:46.209Z,4.64
2023-03-26T02:04:54.551Z,4.63
2023-03-26T02:07:37.893Z,4.56
2023-03-26T02:10:33.808Z,4.57
2023-03-26T02:13:00.718Z,4.67
2023-03-26T02:15:27.509Z,4.63
2023-03-26T02:17:54.322Z,4.65
2023-03-26T02:20:21.259Z,4.59
2023-03-26T02:22:47.737Z,4.54
2023-03-26T02:25:19.967Z,4.52
2023-03-26T02:27:49.729Z,4.61
2023-03-26T02:30:21.535Z,4.67
2023-03-26T02:32:52.168Z,4.66
2023-03-26T02:35:21.477Z,4.68
2023-03-26T02:37:51.185Z,4.65
2023-03-26T02:40:22.259Z,4.65
2023-03-26T02:42:49.851Z,4.65
2023-03-26T02:45:17.264Z,4.69
2023-03-26T02:48:16.107Z,4.72
2023-03-26T02:50:50.092Z,4.77
2023-03-26T02:53:41.226Z,4.70
2023-03-26T02:56:26.080Z,4.63
2023-03-26T02:59:11.251Z,4.68
2023-03-26T03:01:43.070Z,4.67
2023-03-26T03:04:12.439Z,4.64
2023-03-26T03:06:40.420Z,4.61
2023-03-26T03:09:10.853Z,4.62
2023-03-26T03:11:39.125Z,4.60
2023-03-26T03:14:05.760Z,4.57
2023-03-26T03:16:33.697Z,4.60
2023-03-26T03:19:06.144Z,4.59
2023-03-26T03:21:42.369Z,4.57
2023-03-26T03:24:11.639Z,4.57
2023-03-26T03:26:42.342Z,4.62
2023-03-26T03:29:20.685Z,4.66
2023-03-26T03:31:47.616Z,4.67
2023-03-26T03:34:33.048Z,4.66
2023-03-26T03:36:59.533Z,4.64
2023-03-26T03:39:35.045Z,4.66
2023-03-26T03:42:01.895Z,4.64
2023-03-26T03:44:28.702Z,4.67
2023-03-26T03:46:56.909Z,4.70
2023-03-26T03:49:23.698Z,4.70
2023-03-26T03:51:50.724Z,4.72
2023-03-26T03:54:33.206Z,4.69
2023-03-26T03:57:26.452Z,4.68
2023-03-26T03:59:59.511Z,4.64
2023-03-26T04:02:34.729Z,4.70
2023-03-26T04:05:06.034Z,4.72
2023-03-26T04:07:32.994Z,4.74
2023-03-26T04:10:07.390Z,4.74
2023-03-26T04:12:56.557Z,4.74
2023-03-26T04:15:48.274Z,4.75
2023-03-26T04:18:15.053Z,4.77
2023-03-26T04:20:46.329Z,4.76
2023-03-26T04:23:18.842Z,4.80
2023-03-26T04:25:53.866Z,4.83
2023-03-26T04:28:56.604Z,4.85
2023-03-26T04:31:30.499Z,4.90
2023-03-26T04:34:07.795Z,4.92
2023-03-26T04:36:42.385Z,4.95
2023-03-26T04:39:11.505Z,4.99
2023-03-26T04:42:03.788Z,4.99
2023-03-26T04:44:42.326Z,5.03
2023-03-26T04:47:11.390Z,5.02
2023-03-26T04:49:46.116Z,5.04
2023-03-26T04:52:15.355Z,5.02
2023-03-26T04:55:47.084Z,4.96
2023-03-26T04:58:30.021Z,4.97
2023-03-26T05:01:01.271Z,5.02
2023-03-26T05:03:42.613Z,5.04
2023-03-26T05:06:13.690Z,5.08
2023-03-26T05:08:41.738Z,5.10
2023-03-26T05:11:12.261Z,5.11
2023-03-26T05:13:39.053Z,5.14
2023-03-26T05:16:11.176Z,5.17
2023-03-26T05:18:40.802Z,5.17
2023-03-26T05:21:08.362Z,5.16
2023-03-26T05:23:35.377Z,5.17
2023-03-26T05:26:11.059Z,5.19
2023-03-26T05:28:37.969Z,5.21
2023-03-26T05:31:39.622Z,5.23
2023-03-26T05:34:06.703Z,5.24
2023-03-26T05:36:33.380Z,5.24
2023-03-26T05:39:25.565Z,5.27
2023-03-26T05:42:12.054Z,5.27
2023-03-26T05:44:59.037Z,5.29
2023-03-26T05:47:28.417Z,5.29
2023-03-26T05:49:55.787Z,5.33
2023-03-26T05:52:22.520Z,5.33
2023-03-26T05:55:27.681Z,5.35
2023-03-26T05:58:13.539Z,5.35
2023-03-26T06:01:05.888Z,5.33
2023-03-26T06:03:52.643Z,5.37
2023-03-26T06:06:20.806Z,5.39
2023-03-26T06:09:02.246Z,5.43
2023-03-26T06:11:32.946Z,5.42
2023-03-26T06:14:01.143Z,5.43
2023-03-26T06:16:28.376Z,5.44
2023-03-26T06:19:27.108Z,5.47
2023-03-26T06:22:00.888Z,5.45
2023-03-26T06:24:37.150Z,5.43
2023-03-26T06:27:35.187Z,5.45
2023-03-26T06:30:21.906Z,5.50
2023-03-26T06:33:14.592Z,5.52
2023-03-26T06:35:46.802Z,5.53
2023-03-26T06:38:15.284Z,5.50
2023-03-26T06:40:41.910Z,5.47
2023-03-26T06:43:26.297Z,5.53
2023-03-26T06:45:55.568Z,5.55
2023-03-26T06:48:37.712Z,5.55
2023-03-26T06:51:22.887Z,5.59
2023-03-26T06:54:07.684Z,5.60
2023-03-26T06:56:57.061Z,5.58
2023-03-26T06:59:55.522Z,5.65
2023-03-26T07:02:40.372Z,5.70
2023-03-26T07:05:25.341Z,5.71
2023-03-26T07:08:10.778Z,5.76
2023-03-26T07:10:56.195Z,5.76
2023-03-26T07:13:43.190Z,5.75
2023-03-26T07:16:28.648Z,5.71
2023-03-26T07:19:17.263Z,5.74
2023-03-26T07:21:44.497Z,5.77
2023-03-26T07:24:36.836Z,5.81
2023-03-26T07:27:42.470Z,5.87
2023-03-26T07:30:37.569Z,5.96
2023-03-26T07:33:41.941Z,6.04
2023-03-26T07:36:30.693Z,6.05
2023-03-26T07:39:40.948Z,6.02
2023-03-26T07:42:38.925Z,6.04
2023-03-26T07:45:39.700Z,6.07
2023-03-26T07:48:29.769Z,6.08
2023-03-26T07:51:25.781Z,6.06
2023-03-26T07:54:00.933Z,6.07
2023-03-26T07:57:12.934Z,6.14
2023-03-26T07:59:58.267Z,6.08
2023-03-26T08:02:54.266Z,6.14
2023-03-26T08:05:50.386Z,6.19
2023-03-26T08:08:56.636Z,6.30
2023-03-26T08:11:58.603Z,6.42
2023-03-26T08:14:51.630Z,6.39
2023-03-26T08:17:24.524Z,6.39
2023-03-26T08:20:02.071Z,6.43
2023-03-26T08:22:36.612Z,6.26
2023-03-26T08:25:23.268Z,6.08
2023-03-26T08:28:19.451Z,5.92
2023-03-26T08:30:46.979Z,5.87
2023-03-26T08:33:16.711Z,5.72
2023-03-26T08:35:44.088Z,5.55
2023-03-26T08:38:15.842Z,5.32
2023-03-26T08:41:01.153Z,5.37
2023-03-26T08:43:30.969Z,5.47
2023-03-26T08:46:09.490Z,5.64
2023-03-26T08:49:13.245Z,5.81
2023-03-26T08:51:45.814Z,6.00
2023-03-26T08:54:57.536Z,5.95
2023-03-26T08:57:37.552Z,6.15
2023-03-26T09:00:19.184Z,6.26
2023-03-26T09:03:13.072Z,6.51
2023-03-26T09:06:10.161Z,6.70
2023-03-26T09:08:56.923Z,6.77
2023-03-26T09:11:41.864Z,6.74
2023-03-26T09:14:11.297Z,6.87
2023-03-26T09:17:00.856Z,6.76
2023-03-26T09:19:37.422Z,6.76
2023-03-26T09:22:30.358Z,6.82
2023-03-26T09:25:35.148Z,6.80
2023-03-26T09:28:14.151Z,7.08
2023-03-26T09:30:59.171Z,7.10
2023-03-26T09:33:53.749Z,7.19
2023-03-26T09:36:43.036Z,7.08
2023-03-26T09:39:17.313Z,7.23
2023-03-26T09:42:07.976Z,7.49
2023-03-26T09:44:56.448Z,7.97
2023-03-26T09:47:45.650Z,8.23
2023-03-26T09:50:34.201Z,8.17
2023-03-26T09:53:19.607Z,8.21
2023-03-26T09:56:17.117Z,8.16
2023-03-26T09:58:57.898Z,8.05
2023-03-26T10:01:46.713Z,7.91
2023-03-26T10:04:38.512Z,8.03
2023-03-26T10:07:26.277Z,8.09
2023-03-26T10:10:18.371Z,8.17
2023-03-26T10:13:11.638Z,8.07
2023-03-26T10:15:59.557Z,8.10
2023-03-26T10:19:04.337Z,8.28
2023-03-26T10:21:43.266Z,8.41
2023-03-26T10:24:18.676Z,8.77
2023-03-26T10:27:08.319Z,9.04
2023-03-26T10:29:52.104Z,9.53
2023-03-26T10:32:37.818Z,9.24
2023-03-26T10:35:41.965Z,9.77
2023-03-26T10:38:30.033Z,9.74
2023-03-26T10:41:05.873Z,9.72
2023-03-26T10:43:36.349Z,9.73
2023-03-26T10:46:31.631Z,9.56
2023-03-26T10:49:27.392Z,9.25
2023-03-26T10:51:59.572Z,9.63
2023-03-26T10:54:31.231Z,9.56
2023-03-26T10:56:58.319Z,9.85
2023-03-26T10:59:27.517Z,9.98
2023-03-26T11:02:39.632Z,10.19
2023-03-26T11:05:24.711Z,9.88
2023-03-26T11:08:14.479Z,9.68
2023-03-26T11:11:09.522Z,9.69
2023-03-26T11:13:44.435Z,9.67
2023-03-26T11:16:18.955Z,9.90
2023-03-26T11:18:51.092Z,10.02
2023-03-26T11:21:27.854Z,10.11
2023-03-26T11:24:11.733Z,10.18
2023-03-26T11:27:24.968Z,9.77
2023-03-26T11:30:21.292Z,9.40
2023-03-26T11:32:52.726Z,9.87
2023-03-26T11:35:40.513Z,10.21
2023-03-26T11:38:20.681Z,10.38
2023-03-26T11:40:51.218Z,10.34
2023-03-26T11:43:37.091Z,10.19
2023-03-26T11:46:09.469Z,10.49
2023-03-26T11:48:46.618Z,10.84
2023-03-26T11:51:22.848Z,11.00
2023-03-26T11:53:49.387Z,10.99
2023-03-26T11:56:32.132Z,10.43
2023-03-26T11:59:21.861Z,10.49
2023-03-26T12:01:58.450Z,10.91
2023-03-26T12:04:41.077Z,10.60
2023-03-26T12:07:31.712Z,10.72
2023-03-26T12:10:18.535Z,10.79
2023-03-26T12:12:47.607Z,10.83
2023-03-26T12:15:16.099Z,10.49
2023-03-26T12:17:43.156Z,10.26
2023-03-26T12:20:24.901Z,10.50
2023-03-26T12:22:53.601Z,10.27
2023-03-26T12:25:21.589Z,10.51
2023-03-26T12:27:49.474Z,10.77
2023-03-26T12:30:25.481Z,10.49
2023-03-26T12:32:56.756Z,10.29
2023-03-26T12:35:29.271Z,9.52
2023-03-26T12:38:30.154Z,9.20
2023-03-26T12:43:40.325Z,9.05
2023-03-26T12:44:52.813Z,9.10
2023-03-26T12:47:58.376Z,9.66
2023-03-26T12:50:14.336Z,9.89
2023-03-26T12:52:59.398Z,10.03
2023-03-26T12:56:10.140Z,10.38
2023-03-26T12:58:55.256Z,11.17
2023-03-26T13:01:47.135Z,10.78
2023-03-26T13:04:34.410Z,10.35
2023-03-26T13:07:15.224Z,9.92
2023-03-26T13:09:52.902Z,10.11
2023-03-26T13:12:41.046Z,10.20
2023-03-26T13:15:26.768Z,9.30
2023-03-26T13:18:21.919Z,8.98
2023-03-26T13:21:04.756Z,10.16
2023-03-26T13:23:52.413Z,9.78
2023-03-26T13:26:45.457Z,9.19
2023-03-26T13:29:42.854Z,8.67
2023-03-26T13:32:37.100Z,9.20
2023-03-26T13:35:16.877Z,9.58
2023-03-26T13:37:53.633Z,9.24
2023-03-26T13:40:24.811Z,9.13
2023-03-26T13:43:06.578Z,8.90
2023-03-26T13:45:38.890Z,9.00
2023-03-26T13:48:10.225Z,8.78
2023-03-26T13:50:40.820Z,9.87
2023-03-26T13:53:19.473Z,11.33
2023-03-26T13:55:51.908Z,14.44
2023-03-26T13:58:34.382Z,15.14
2023-03-26T14:01:33.609Z,12.81
2023-03-26T14:04:00.173Z,13.80
2023-03-26T14:06:54.044Z,14.50
2023-03-26T14:09:34.409Z,13.07
2023-03-26T14:12:26.440Z,12.14
2023-03-26T14:15:02.682Z,10.47
2023-03-26T14:17:44.870Z,9.97
2023-03-26T14:20:17.353Z,9.48
2023-03-26T14:23:25.703Z,9.14
2023-03-26T14:26:25.217Z,8.99
2023-03-26T14:28:54.755Z,8.64
2023-03-26T14:31:38.965Z,8.17
2023-03-26T14:34:33.147Z,7.31
2023-03-26T14:37:46.372Z,6.82
2023-03-26T14:40:29.758Z,6.48
2023-03-26T14:43:19.491Z,6.27
2023-03-26T14:46:07.470Z,6.00
2023-03-26T14:48:52.209Z,5.64
2023-03-26T14:51:55.235Z,5.47
2023-03-26T14:54:28.399Z,5.72
2023-03-26T14:57:17.376Z,6.35
2023-03-26T15:00:06.600Z,7.04
2023-03-26T15:02:57.869Z,6.70
2023-03-26T15:05:54.654Z,6.96
2023-03-26T15:08:58.608Z,6.69
2023-03-26T15:11:34.295Z,7.10
2023-03-26T15:14:38.431Z,7.38
2023-03-26T15:17:35.638Z,7.59
2023-03-26T15:20:33.428Z,7.73
2023-03-26T15:23:08.924Z,7.68
2023-03-26T15:25:54.061Z,8.31
2023-03-26T15:28:33.517Z,9.34
2023-03-26T15:31:26.201Z,9.36
2023-03-26T15:34:14.439Z,8.60
2023-03-26T15:37:12.599Z,8.36
2023-03-26T15:39:58.720Z,8.36
2023-03-26T15:42:38.247Z,7.80
2023-03-26T15:45:20.100Z,8.22
2023-03-26T15:48:09.556Z,8.22
2023-03-26T15:50:56.261Z,8.09
2023-03-26T15:53:47.869Z,8.23
2023-03-26T15:56:26.409Z,8.61
2023-03-26T15:59:06.114Z,8.32
2023-03-26T16:01:47.569Z,7.87
2023-03-26T16:04:29.187Z,8.08
2023-03-26T16:07:03.458Z,7.80
2023-03-26T16:09:55.640Z,7.83
2023-03-26T16:12:34.683Z,7.23
2023-03-26T16:15:25.081Z,7.06
2023-03-26T16:18:10.332Z,7.12
2023-03-26T16:21:32.137Z,7.10
2023-03-26T16:24:02.327Z,6.78
2023-03-26T16:26:31.571Z,6.71
2023-03-26T16:29:15.727Z,6.90
2023-03-26T16:31:57.789Z,6.53
2023-03-26T16:34:38.803Z,6.47
2023-03-26T16:37:26.300Z,6.02
2023-03-26T16:39:53.081Z,6.06
2023-03-26T16:42:28.008Z,6.24
2023-03-26T16:45:17.843Z,6.20
2023-03-26T16:48:05.798Z,6.14
2023-03-26T16:50:46.164Z,6.15
2023-03-26T16:53:48.647Z,6.05
2023-03-26T16:56:36.483Z,5.99
2023-03-26T16:59:31.717Z,5.85
2023-03-26T17:02:16.164Z,5.86
2023-03-26T17:04:48.497Z,6.06
2023-03-26T17:07:39.567Z,5.94
2023-03-26T17:10:30.782Z,5.93
2023-03-26T17:13:07.900Z,5.87
2023-03-26T17:15:45.055Z,5.98
2023-03-26T17:18:30.073Z,6.10
2023-03-26T17:21:46.236Z,6.03
2023-03-26T17:24:39.002Z,5.92
2023-03-26T17:27:49.919Z,5.79
2023-03-26T17:30:30.523Z,5.57
2023-03-26T17:33:03.516Z,5.62
2023-03-26T17:35:39.847Z,5.60
2023-03-26T17:38:18.284Z,5.74
2023-03-26T17:41:04.009Z,5.47
2023-03-26T17:43:44.803Z,5.28
2023-03-26T17:46:39.158Z,5.31
2023-03-26T17:49:11.772Z,5.26
2023-03-26T17:52:15.586Z,5.06
2023-03-26T17:54:46.420Z,5.06
2023-03-26T17:57:41.840Z,4.88
2023-03-26T18:00:16.671Z,4.77
2023-03-26T18:02:50.485Z,4.47
2023-03-26T18:05:17.500Z,4.28
2023-03-26T18:08:12.559Z,4.12
2023-03-26T18:11:12.774Z,3.96
2023-03-26T18:14:20.928Z,3.71
2023-03-26T18:16:53.887Z,3.75
2023-03-26T18:19:22.777Z,3.78
2023-03-26T18:21:52.144Z,3.89
2023-03-26T18:24:40.270Z,3.76
2023-03-26T18:27:16.759Z,3.83
2023-03-26T18:29:46.034Z,3.90
2023-03-26T18:32:12.465Z,3.93
2023-03-26T18:34:49.392Z,3.95
2023-03-26T18:37:23.755Z,3.95
2023-03-26T18:39:56.685Z,3.93
2023-03-26T18:42:25.750Z,3.91
2023-03-26T18:44:53.484Z,3.98
2023-03-26T18:47:23.808Z,4.06
2023-03-26T18:49:56.582Z,4.16
2023-03-26T18:52:23.251Z,4.21
2023-03-26T18:54:53.256Z,4.21
2023-03-26T18:57:26.325Z,4.38
2023-03-26T18:59:54.942Z,4.46
2023-03-26T19:02:22.143Z,4.49
2023-03-26T19:04:50.860Z,4.49
2023-03-26T19:07:23.716Z,4.50
2023-03-26T19:09:54.678Z,4.52
2023-03-26T19:12:27.252Z,4.46
2023-03-26T19:15:15.636Z,4.45
2023-03-26T19:17:46.987Z,4.48
2023-03-26T19:20:19.381Z,4.48
2023-03-26T19:22:47.528Z,4.50
2023-03-26T19:25:22.081Z,4.45
2023-03-26T19:27:50.665Z,4.36
2023-03-26T19:30:33.863Z,4.31
2023-03-26T19:33:13.241Z,4.30
2023-03-26T19:35:42.123Z,4.21
2023-03-26T19:38:22.538Z,4.23
2023-03-26T19:40:51.814Z,4.18
2023-03-26T19:43:18.874Z,4.14
2023-03-26T19:45:59.749Z,4.07
2023-03-26T19:48:45.774Z,4.06
2023-03-26T19:51:20.431Z,4.08
2023-03-26T19:53:52.914Z,4.10
2023-03-26T19:56:21.222Z,4.07
2023-03-26T19:58:49.988Z,4.05
2023-03-26T20:01:19.634Z,4.06
2023-03-26T20:03:48.694Z,4.08
2023-03-26T20:06:18.080Z,4.12
2023-03-26T20:08:45.184Z,4.11
2023-03-26T20:11:23.476Z,4.12
2023-03-26T20:13:50.872Z,4.16
2023-03-26T20:16:26.505Z,4.23
2023-03-26T20:18:57.116Z,4.25
2023-03-26T20:21:25.355Z,4.30
2023-03-26T20:23:55.199Z,4.32
2023-03-26T20:26:23.242Z,4.33
2023-03-26T20:31:25.153Z,4.37
2023-03-26T20:33:53.211Z,4.43
2023-03-26T20:36:33.329Z,4.45
2023-03-26T20:39:01.497Z,4.48
2023-03-26T20:41:28.965Z,4.49
2023-03-26T20:43:55.611Z,4.50
2023-03-26T20:46:23.946Z,4.52
2023-03-26T20:48:57.994Z,4.52
2023-03-26T20:51:24.582Z,4.52
2023-03-26T20:53:51.045Z,4.53
2023-03-26T20:56:19.314Z,4.61
2023-03-26T20:59:03.647Z,4.65
2023-03-26T21:01:34.827Z,4.68
2023-03-26T21:04:04.104Z,4.71
2023-03-26T21:06:30.559Z,4.72
2023-03-26T21:08:57.292Z,4.73
2023-03-26T21:11:40.881Z,4.68
2023-03-26T21:14:16.093Z,4.71
2023-03-26T21:16:42.880Z,4.69
2023-03-26T21:19:10.367Z,4.55
2023-03-26T21:21:50.772Z,4.61
2023-03-26T21:24:30.233Z,4.70
2023-03-26T21:27:04.033Z,4.62
2023-03-26T21:29:30.928Z,4.68
2023-03-26T21:31:57.728Z,4.68
2023-03-26T21:34:24.472Z,4.57
2023-03-26T21:36:51.764Z,4.49
2023-03-26T21:39:18.423Z,4.47
2023-03-26T21:41:48.374Z,4.40
2023-03-26T21:44:32.407Z,4.25
2023-03-26T21:46:59.189Z,4.30
2023-03-26T21:49:26.045Z,4.23
2023-03-26T21:51:52.782Z,4.19
2023-03-26T21:54:31.168Z,4.15
2023-03-26T21:57:19.809Z,4.09
2023-03-26T21:59:54.345Z,4.05
2023-03-26T22:02:39.353Z,4.00
2023-03-26T22:05:12.886Z,3.99
2023-03-26T22:07:54.364Z,3.98
2023-03-26T22:10:21.053Z,3.91
2023-03-26T22:12:47.929Z,3.92
2023-03-26T22:15:14.825Z,4.02
2023-03-26T22:17:42.147Z,4.01
2023-03-26T22:20:14.098Z,3.94
2023-03-26T22:22:46.100Z,4.02
2023-03-26T22:25:12.907Z,3.97
2023-03-26T22:27:44.549Z,3.84
2023-03-26T22:30:12.846Z,3.91
2023-03-26T22:32:39.856Z,3.87
2023-03-26T22:35:07.077Z,3.89
2023-03-26T22:37:34.432Z,3.80
2023-03-26T22:40:01.224Z,3.74
2023-03-26T22:42:27.948Z,3.81
2023-03-26T22:44:54.377Z,3.84
2023-03-26T22:47:21.835Z,3.85
2023-03-26T22:49:48.268Z,3.83
2023-03-26T22:52:14.710Z,3.60
2023-03-26T22:54:41.506Z,3.61
2023-03-26T22:57:08.026Z,3.67
2023-03-26T22:59:34.572Z,3.68
2023-03-26T23:02:01.223Z,3.65
2023-03-26T23:04:31.150Z,3.67
2023-03-26T23:06:58.679Z,3.63
2023-03-26T23:09:25.209Z,3.72
2023-03-26T23:11:51.888Z,3.67
2023-03-26T23:14:19.002Z,3.63
2023-03-26T23:16:48.370Z,3.62
2023-03-26T23:19:14.789Z,3.60
2023-03-26T23:21:41.284Z,3.56
2023-03-26T23:24:08.121Z,3.59
2023-03-26T23:26:47.867Z,3.58
2023-03-26T23:29:17.279Z,3.58
2023-03-26T23:31:43.866Z,3.51
2023-03-26T23:34:10.921Z,3.52
2023-03-26T23:36:37.441Z,3.52
2023-03-26T23:39:04.678Z,3.52
2023-03-26T23:41:31.324Z,3.51
2023-03-26T23:43:57.737Z,3.50
2023-03-26T23:46:30.656Z,3.33
2023-03-26T23:48:59.742Z,3.34
2023-03-26T23:51:26.544Z,3.33
2023-03-26T23:53:53.683Z,3.35
2023-03-26T23:56:20.180Z,3.37
2023-03-26T23:58:47.702Z,3.28
